Time;durP1;ratioP1;P1;durP2;ratioP2;P2;SDS_P1;SDS_P2;PMS_P1;PMS_P2;Temp;Humidity;BMP_temperature;BMP_pressure;BME280_temperature;BME280_humidity;BME280_pressure;Samples;Min_cycle;Max_cycle;Signal;HPM_P1;HPM_P2
2022/11/19 00:01:06;;;;;;;32.53;15.68;;;1.40;99.90;;;;;;5171809;28;20025;-61
2022/11/19 00:03:45;;;;;;;33.50;15.43;;;1.50;99.90;;;;;;5172006;28;20404;-62
2022/11/19 00:06:23;;;;;;;35.67;16.30;;;1.60;99.90;;;;;;5149810;28;20053;-64
2022/11/19 00:08:57;;;;;;;37.88;16.20;;;1.50;99.90;;;;;;5145445;28;20038;-60
2022/11/19 00:14:25;;;;;;;39.05;17.10;;;1.20;99.90;;;;;;5186655;28;20376;-61
2022/11/19 00:16:58;;;;;;;35.55;16.92;;;1.20;99.90;;;;;;5158847;28;20038;-62
2022/11/19 00:19:30;;;;;;;42.92;18.15;;;1.10;99.90;;;;;;5192744;28;20033;-60
2022/11/19 00:22:01;;;;;;;36.28;17.30;;;1.00;99.90;;;;;;5183477;28;20032;-62
2022/11/19 00:24:34;;;;;;;36.65;15.07;;;1.00;99.90;;;;;;5187804;28;20037;-61
2022/11/19 00:27:12;;;;;;;34.47;17.00;;;1.10;99.90;;;;;;5173269;28;20022;-60
2022/11/19 00:29:43;;;;;;;33.55;15.93;;;0.90;99.90;;;;;;5155293;28;20036;-58
2022/11/19 00:32:18;;;;;;;39.03;15.82;;;1.00;99.90;;;;;;5182703;28;20041;-60
2022/11/19 00:34:52;;;;;;;38.00;15.10;;;1.00;99.90;;;;;;5183254;28;20038;-60
2022/11/19 00:37:26;;;;;;;38.58;15.60;;;1.00;99.90;;;;;;5177916;28;20045;-61
2022/11/19 00:40:00;;;;;;;40.13;16.80;;;0.90;99.90;;;;;;5192504;28;20043;-61
2022/11/19 00:42:31;;;;;;;;;;;1.00;99.90;;;;;;5159424;28;20029;-60
2022/11/19 00:45:02;;;;;;;40.88;16.27;;;1.00;99.90;;;;;;5192454;28;19951;-61
2022/11/19 00:47:34;;;;;;;35.60;16.63;;;1.00;99.90;;;;;;5144184;28;20068;-62
2022/11/19 00:50:05;;;;;;;27.30;14.40;;;0.90;99.90;;;;;;5192565;28;20055;-60
2022/11/19 00:52:37;;;;;;;37.00;16.15;;;1.00;99.90;;;;;;5164638;28;20045;-60
2022/11/19 00:55:10;;;;;;;35.35;16.30;;;1.20;99.90;;;;;;5197637;28;20040;-61
2022/11/19 00:57:44;;;;;;;31.77;14.77;;;1.20;99.90;;;;;;5158234;28;20274;-60
2022/11/19 01:02:58;;;;;;;33.90;17.75;;;1.00;99.90;;;;;;5163533;23;20568;-61
2022/11/19 01:05:35;;;;;;;35.05;15.93;;;1.00;99.90;;;;;;5194568;28;20045;-61
2022/11/19 01:08:09;;;;;;;31.33;14.98;;;1.10;99.90;;;;;;5179259;28;20202;-61
2022/11/19 01:10:43;;;;;;;35.85;15.20;;;1.00;99.90;;;;;;5159283;28;20034;-61
2022/11/19 01:13:34;;;;;;;30.83;15.73;;;1.00;99.90;;;;;;5161022;28;20033;-61
2022/11/19 01:16:19;;;;;;;29.33;15.85;;;1.00;99.90;;;;;;5164239;28;20026;-59
2022/11/19 01:18:51;;;;;;;37.90;14.90;;;1.00;99.90;;;;;;5178430;28;20034;-61
2022/11/19 01:21:27;;;;;;;33.53;15.27;;;1.10;99.90;;;;;;5179333;28;20467;-61
2022/11/19 01:23:59;;;;;;;32.67;15.52;;;1.20;99.90;;;;;;5195095;28;20044;-61
2022/11/19 01:26:31;;;;;;;33.58;16.35;;;1.20;99.90;;;;;;5162779;28;20241;-60
2022/11/19 01:29:02;;;;;;;36.13;15.80;;;1.10;99.90;;;;;;5213078;28;20028;-61
2022/11/19 01:31:33;;;;;;;28.60;14.32;;;1.00;99.90;;;;;;5178530;28;20517;-61
2022/11/19 01:34:04;;;;;;;29.58;14.25;;;0.90;99.90;;;;;;5178146;28;20037;-61
2022/11/19 01:36:37;;;;;;;35.28;16.38;;;0.90;99.90;;;;;;5178141;28;20037;-60
2022/11/19 01:39:19;;;;;;;36.13;15.70;;;0.90;99.90;;;;;;5192464;28;20025;-62
2022/11/19 01:41:58;;;;;;;41.35;17.23;;;0.80;99.90;;;;;;5178366;28;20047;-61
2022/11/19 01:45:01;;;;;;;32.78;16.05;;;0.60;99.90;;;;;;5213037;28;20443;-60
2022/11/19 01:47:38;;;;;;;35.10;14.43;;;0.60;99.90;;;;;;5194972;28;20028;-60
2022/11/19 01:50:12;;;;;;;34.53;15.27;;;0.50;99.90;;;;;;5194169;28;20219;-61
2022/11/19 01:52:43;;;;;;;34.78;15.93;;;0.40;99.90;;;;;;5176602;28;20049;-60
2022/11/19 01:55:17;;;;;;;33.17;15.00;;;0.40;99.90;;;;;;5193888;28;20512;-61
2022/11/19 01:57:58;;;;;;;29.63;14.80;;;0.30;99.90;;;;;;5179108;28;20067;-61
2022/11/19 02:00:29;;;;;;;37.40;16.33;;;0.40;99.90;;;;;;5178189;28;20259;-60
2022/11/19 02:03:01;;;;;;;31.92;15.15;;;0.30;99.90;;;;;;5176586;28;20041;-61
2022/11/19 02:05:33;;;;;;;35.58;16.63;;;0.40;99.90;;;;;;5169620;28;20045;-62
2022/11/19 02:08:26;;;;;;;32.05;14.65;;;0.50;99.90;;;;;;5175494;28;20057;-60
2022/11/19 02:11:21;;;;;;;36.25;15.85;;;0.50;99.90;;;;;;5206234;28;20363;-62
2022/11/19 02:14:17;;;;;;;38.00;16.60;;;0.60;99.90;;;;;;5198148;28;20040;-60
2022/11/19 02:16:58;;;;;;;36.10;16.63;;;0.60;99.90;;;;;;5216077;28;20023;-62
2022/11/19 02:20:07;;;;;;;37.78;16.95;;;0.60;99.90;;;;;;5223380;28;20039;-60
2022/11/19 02:22:47;;;;;;;36.33;16.55;;;0.40;99.90;;;;;;5218721;28;20028;-61
2022/11/19 02:25:27;;;;;;;34.75;16.25;;;0.20;99.90;;;;;;5181877;28;20051;-62
2022/11/19 02:28:19;;;;;;;33.63;16.48;;;0.30;99.90;;;;;;5198126;28;20330;-60
2022/11/19 02:31:02;;;;;;;33.92;16.35;;;0.20;99.90;;;;;;5200144;28;20056;-61
2022/11/19 02:34:00;;;;;;;35.58;16.48;;;0.20;99.90;;;;;;5218640;28;20044;-61
2022/11/19 02:36:50;;;;;;;33.22;14.55;;;0.30;99.90;;;;;;5201560;28;20067;-61
2022/11/19 02:39:45;;;;;;;37.15;16.85;;;0.30;99.90;;;;;;5202779;28;20041;-61
2022/11/19 02:42:53;;;;;;;34.72;17.00;;;0.30;99.90;;;;;;5215906;28;20458;-61
2022/11/19 02:45:41;;;;;;;40.30;16.88;;;0.30;99.90;;;;;;5201988;28;20044;-61
2022/11/19 02:48:29;;;;;;;28.55;14.48;;;0.20;99.90;;;;;;5235215;28;20025;-61
2022/11/19 02:51:05;;;;;;;27.15;13.98;;;0.10;99.90;;;;;;5234393;28;20116;-59
2022/11/19 02:53:36;;;;;;;30.05;15.23;;;0.10;99.90;;;;;;5221440;28;20063;-60
2022/11/19 02:56:13;;;;;;;32.25;15.63;;;0.10;99.90;;;;;;5214076;28;20037;-60
2022/11/19 03:04:36;;;;;;;31.38;14.68;;;0.00;99.90;;;;;;5209323;28;20053;-61
2022/11/19 03:07:15;;;;;;;38.65;16.55;;;0.10;99.90;;;;;;5186314;28;20025;-60
2022/11/19 03:09:56;;;;;;;34.08;16.10;;;0.00;99.90;;;;;;5181587;28;20036;-62
2022/11/19 03:16:40;;;;;;;38.47;17.58;;;0.10;99.90;;;;;;5181279;28;20051;-61
2022/11/19 03:19:06;;;;;;;29.00;14.60;;;-0.10;99.90;;;;;;5132451;28;20654;-60
2022/11/19 03:21:43;;;;;;;30.98;14.52;;;0.00;99.90;;;;;;5152265;28;20049;-61
2022/11/19 03:24:24;;;;;;;33.08;14.93;;;0.00;99.90;;;;;;5151731;28;20150;-61
2022/11/19 03:27:13;;;;;;;33.17;15.38;;;0.00;99.90;;;;;;5134974;28;20039;-61
2022/11/19 03:29:50;;;;;;;35.80;16.20;;;0.00;99.90;;;;;;5136023;28;20035;-61
2022/11/19 03:32:46;;;;;;;34.67;16.15;;;0.00;99.90;;;;;;5134572;28;20038;-61
2022/11/19 03:35:46;;;;;;;35.63;16.40;;;0.10;99.90;;;;;;5121845;28;20481;-62
2022/11/19 03:38:45;;;;;;;35.58;17.52;;;0.20;99.90;;;;;;5149749;28;20045;-62
2022/11/19 03:41:19;;;;;;;36.60;17.02;;;0.30;99.90;;;;;;5135394;28;20035;-62
2022/11/19 03:43:59;;;;;;;34.60;15.40;;;0.30;99.90;;;;;;5134943;28;20060;-61
2022/11/19 03:46:34;;;;;;;34.08;14.68;;;0.20;99.90;;;;;;5150632;28;20510;-60
2022/11/19 03:49:09;;;;;;;37.38;15.07;;;0.30;99.90;;;;;;5134409;28;20035;-61
2022/11/19 03:51:53;;;;;;;31.92;14.20;;;0.30;99.90;;;;;;5152704;28;20048;-61
2022/11/19 03:54:24;;;;;;;36.58;15.90;;;0.20;99.90;;;;;;5191658;28;20044;-61
2022/11/19 03:56:57;;;;;;;34.90;15.90;;;0.30;99.90;;;;;;5211339;28;20039;-60
2022/11/19 03:59:31;;;;;;;33.70;16.07;;;0.40;99.90;;;;;;5217477;28;20029;-60
2022/11/19 04:02:09;;;;;;;36.80;18.23;;;0.40;99.90;;;;;;5217102;28;20543;-61
2022/11/19 04:04:40;;;;;;;37.85;15.93;;;0.30;99.90;;;;;;5185022;28;20052;-61
2022/11/19 04:07:19;;;;;;;39.55;16.13;;;0.10;99.90;;;;;;5213544;28;20032;-60
2022/11/19 04:09:50;;;;;;;35.25;15.13;;;0.10;99.90;;;;;;5196631;28;20032;-61
2022/11/19 04:12:25;;;;;;;33.40;16.60;;;0.00;99.90;;;;;;5209125;28;20048;-59
2022/11/19 04:14:58;;;;;;;29.60;14.68;;;-0.10;99.90;;;;;;5176108;28;20042;-64
2022/11/19 04:17:32;;;;;;;34.83;15.93;;;0.00;99.90;;;;;;5175828;28;20030;-61
2022/11/19 04:20:12;;;;;;;33.85;15.15;;;-0.10;99.90;;;;;;5176077;28;20029;-61
2022/11/19 04:22:49;;;;;;;33.95;15.40;;;-0.10;99.90;;;;;;5214118;28;20037;-62
2022/11/19 04:25:20;;;;;;;35.83;16.70;;;0.00;99.90;;;;;;5214999;28;20218;-60
2022/11/19 04:27:51;;;;;;;31.50;14.60;;;0.00;99.90;;;;;;5188867;28;20046;-62
2022/11/19 04:30:25;;;;;;;37.72;16.35;;;0.00;99.90;;;;;;5177996;28;20026;-59
2022/11/19 04:32:59;;;;;;;35.70;15.85;;;0.00;99.90;;;;;;5212853;28;20029;-61
2022/11/19 04:35:33;;;;;;;40.30;15.98;;;-0.10;99.90;;;;;;5180543;28;20029;-61
2022/11/19 04:38:12;;;;;;;48.25;15.38;;;-0.20;99.90;;;;;;5193145;28;20057;-60
2022/11/19 04:40:51;;;;;;;36.60;15.70;;;-0.10;99.90;;;;;;5195616;28;20037;-61
2022/11/19 04:43:25;;;;;;;35.65;15.60;;;-0.10;99.90;;;;;;5195287;28;20041;-60
2022/11/19 04:46:00;;;;;;;33.90;15.05;;;-0.10;99.90;;;;;;5178519;28;20572;-61
2022/11/19 04:48:31;;;;;;;32.88;15.45;;;-0.10;99.90;;;;;;5178780;28;20035;-62
2022/11/19 04:51:07;;;;;;;31.83;14.73;;;-0.20;99.90;;;;;;5195082;28;20048;-61
2022/11/19 04:53:41;;;;;;;35.00;17.30;;;-0.10;99.90;;;;;;5179077;28;20048;-62
2022/11/19 04:56:12;;;;;;;48.10;15.13;;;-0.10;99.90;;;;;;5195756;28;20017;-61
2022/11/19 04:58:46;;;;;;;39.75;15.38;;;-0.20;99.90;;;;;;5195650;28;20043;-61
2022/11/19 05:01:22;;;;;;;35.95;16.23;;;-0.20;99.90;;;;;;5195555;28;20050;-62
2022/11/19 05:03:58;;;;;;;42.20;16.30;;;-0.30;99.90;;;;;;5178118;28;20233;-61
2022/11/19 05:06:32;;;;;;;35.08;14.75;;;-0.40;99.90;;;;;;5171481;28;20067;-61
2022/11/19 05:09:06;;;;;;;32.40;16.20;;;-0.40;99.90;;;;;;5199375;28;20044;-62
2022/11/19 05:11:39;;;;;;;39.22;16.02;;;-0.50;99.90;;;;;;5199384;28;20025;-62
2022/11/19 05:14:13;;;;;;;35.90;15.13;;;-0.50;99.90;;;;;;5199092;28;20036;-62
2022/11/19 05:16:52;;;;;;;35.80;16.42;;;-0.50;99.90;;;;;;5199378;28;20527;-61
2022/11/19 05:19:23;;;;;;;40.22;15.65;;;-0.50;99.90;;;;;;5215635;28;20642;-61
2022/11/19 05:21:57;;;;;;;37.90;15.73;;;-0.40;99.90;;;;;;5234017;28;20033;-61
2022/11/19 05:24:28;;;;;;;33.50;16.38;;;-0.40;99.90;;;;;;5233865;28;20029;-61
2022/11/19 05:26:59;;;;;;;41.55;17.33;;;-0.30;99.90;;;;;;5214087;28;20082;-61
2022/11/19 05:29:30;;;;;;;34.70;15.35;;;-0.10;99.90;;;;;;5216682;28;20039;-61
2022/11/19 05:32:01;;;;;;;39.25;15.27;;;-0.10;99.90;;;;;;5197286;28;20037;-61
2022/11/19 05:34:36;;;;;;;34.30;15.07;;;0.00;99.90;;;;;;5215200;28;20379;-63
2022/11/19 05:37:13;;;;;;;38.75;16.27;;;0.10;99.90;;;;;;5198439;28;20047;-61
2022/11/19 05:39:49;;;;;;;39.83;15.90;;;0.20;99.90;;;;;;5168034;28;20033;-60
2022/11/19 05:42:21;;;;;;;36.05;16.10;;;0.20;99.90;;;;;;5196558;28;20037;-61
2022/11/19 05:44:52;;;;;;;31.50;14.40;;;0.20;99.90;;;;;;5204259;28;20037;-64
2022/11/19 05:47:23;;;;;;;40.92;16.45;;;0.30;99.90;;;;;;5226223;28;20037;-62
2022/11/19 05:49:57;;;;;;;41.25;17.45;;;0.40;99.90;;;;;;5226273;28;20032;-60
2022/11/19 05:52:28;;;;;;;34.72;16.27;;;0.30;99.90;;;;;;5241814;28;20025;-61
2022/11/19 05:55:04;;;;;;;33.55;15.45;;;0.20;99.90;;;;;;5241200;28;20099;-62
2022/11/19 05:57:38;;;;;;;33.90;14.30;;;0.30;99.90;;;;;;5229665;28;20029;-60
2022/11/19 06:00:16;;;;;;;34.83;15.53;;;0.40;99.90;;;;;;5208709;28;20309;-62
2022/11/19 06:02:47;;;;;;;35.30;14.95;;;0.20;99.90;;;;;;5207613;28;20037;-61
2022/11/19 06:05:18;;;;;;;28.85;13.52;;;0.10;99.90;;;;;;5173034;28;20073;-62
2022/11/19 06:07:49;;;;;;;29.30;14.13;;;0.00;99.90;;;;;;5219821;28;20029;-59
2022/11/19 06:10:22;;;;;;;35.58;14.75;;;0.10;99.90;;;;;;5205321;28;20033;-61
2022/11/19 06:12:56;;;;;;;35.90;15.80;;;0.10;99.90;;;;;;5175462;28;20057;-63
2022/11/19 06:15:30;;;;;;;34.60;14.57;;;0.20;99.90;;;;;;5185739;28;20039;-62
2022/11/19 06:18:01;;;;;;;28.02;12.88;;;0.30;99.90;;;;;;5192335;28;20039;-60
2022/11/19 06:20:35;;;;;;;31.27;15.10;;;0.40;99.90;;;;;;5191359;28;20325;-60
2022/11/19 06:23:07;;;;;;;26.35;11.98;;;0.30;99.90;;;;;;5193337;28;20565;-61
2022/11/19 06:25:39;;;;;;;25.90;12.63;;;0.30;99.90;;;;;;5172250;28;20257;-60
2022/11/19 06:28:10;;;;;;;35.05;16.55;;;0.20;99.90;;;;;;5188320;28;20017;-61
2022/11/19 06:30:43;;;;;;;30.55;13.93;;;0.20;99.90;;;;;;5190825;28;20038;-61
2022/11/19 06:33:15;;;;;;;29.60;14.98;;;0.20;99.90;;;;;;5208719;28;20037;-59
2022/11/19 06:35:50;;;;;;;30.15;13.82;;;0.10;99.90;;;;;;5191615;28;20032;-60
2022/11/19 06:38:23;;;;;;;24.80;12.40;;;0.10;99.90;;;;;;5208529;28;20029;-61
2022/11/19 06:40:54;;;;;;;25.23;13.07;;;0.00;99.90;;;;;;5190901;28;20047;-60
2022/11/19 06:43:25;;;;;;;27.05;13.20;;;0.10;99.90;;;;;;5208156;28;20033;-60
2022/11/19 06:45:59;;;;;;;30.38;13.38;;;0.00;99.90;;;;;;5223624;28;20043;-62
2022/11/19 06:48:35;;;;;;;30.02;12.63;;;0.10;99.90;;;;;;5207803;28;20032;-61
2022/11/19 06:51:07;;;;;;;26.10;11.98;;;0.30;99.90;;;;;;5208504;28;20036;-61
2022/11/19 06:53:38;;;;;;;26.40;14.38;;;0.40;99.90;;;;;;5227075;28;20043;-62
2022/11/19 06:56:12;;;;;;;23.33;10.30;;;0.40;99.90;;;;;;5190416;28;20039;-60
2022/11/19 06:58:46;;;;;;;28.85;12.15;;;0.30;99.90;;;;;;5191531;28;20756;-61
2022/11/19 07:01:17;;;;;;;26.85;10.52;;;0.40;99.90;;;;;;5210070;28;20044;-61
2022/11/19 07:03:52;;;;;;;22.38;10.80;;;0.40;99.90;;;;;;5202496;28;20033;-61
2022/11/19 07:06:28;;;;;;;20.23;9.48;;;0.20;99.90;;;;;;5183353;28;20050;-62
2022/11/19 07:08:59;;;;;;;28.40;12.15;;;0.10;99.90;;;;;;5192350;28;20056;-61
2022/11/19 07:11:34;;;;;;;20.00;9.73;;;0.00;99.90;;;;;;5173532;28;20037;-61
2022/11/19 07:14:11;;;;;;;28.52;12.38;;;0.00;99.90;;;;;;5207881;28;20057;-60
2022/11/19 07:16:42;;;;;;;22.65;11.13;;;0.10;99.90;;;;;;5191197;28;20041;-61
2022/11/19 07:19:16;;;;;;;23.38;10.93;;;0.10;99.90;;;;;;5187744;28;20209;-61
2022/11/19 07:21:49;;;;;;;24.25;11.05;;;0.40;99.90;;;;;;5174171;28;20044;-62
2022/11/19 07:24:26;;;;;;;22.83;10.75;;;0.40;99.90;;;;;;5191383;28;20313;-61
2022/11/19 07:26:57;;;;;;;25.58;9.70;;;0.50;99.90;;;;;;5174741;28;20041;-61
2022/11/19 07:29:29;;;;;;;24.90;9.82;;;0.60;99.90;;;;;;5209532;28;20040;-60
2022/11/19 07:32:00;;;;;;;19.73;9.90;;;0.60;99.90;;;;;;5186637;28;20041;-61
2022/11/19 07:34:32;;;;;;;22.55;10.27;;;0.60;99.90;;;;;;5158149;28;20045;-61
2022/11/19 07:37:06;;;;;;;26.42;11.02;;;0.70;99.90;;;;;;5174431;28;20333;-64
2022/11/19 07:39:37;;;;;;;;;;;0.80;99.90;;;;;;5208068;28;20735;-60
2022/11/19 07:45:06;;;;;;;19.45;9.43;;;0.90;99.90;;;;;;5209484;28;20033;-61
2022/11/19 07:47:37;;;;;;;23.52;9.73;;;1.00;99.90;;;;;;5175175;28;20523;-61
2022/11/19 07:50:09;;;;;;;20.55;9.63;;;1.20;99.90;;;;;;5175189;28;20044;-60
2022/11/19 07:52:40;;;;;;;20.33;10.60;;;1.10;99.90;;;;;;5174020;28;20048;-60
2022/11/19 07:55:17;;;;;;;18.48;8.77;;;1.20;99.90;;;;;;5208305;28;20228;-62
2022/11/19 07:57:48;;;;;;;25.42;11.05;;;1.30;99.90;;;;;;5171886;28;20059;-62
2022/11/19 08:00:21;;;;;;;19.42;9.43;;;1.30;99.90;;;;;;5189758;28;20041;-60
2022/11/19 08:02:54;;;;;;;19.15;8.60;;;1.10;99.90;;;;;;5172006;28;20036;-59
2022/11/19 08:05:28;;;;;;;20.00;9.65;;;0.80;99.90;;;;;;5168955;28;20064;-60
2022/11/19 08:08:02;;;;;;;21.60;9.73;;;0.80;99.90;;;;;;5211229;28;20037;-61
2022/11/19 08:10:35;;;;;;;17.02;9.80;;;0.80;99.90;;;;;;5173422;28;20041;-63
2022/11/19 08:13:10;;;;;;;21.90;9.17;;;0.80;99.90;;;;;;5171767;28;20057;-65
2022/11/19 08:15:43;;;;;;;;;;;0.70;99.90;;;;;;5187782;28;20049;-63
2022/11/19 08:18:20;;;;;;;13.38;8.02;;;0.70;99.90;;;;;;5186725;28;19913;-65
2022/11/19 08:20:54;;;;;;;15.82;9.18;;;0.70;99.90;;;;;;5188313;28;20036;-61
2022/11/19 08:23:25;;;;;;;18.45;8.48;;;0.80;99.90;;;;;;5174121;28;20045;-60
2022/11/19 08:25:59;;;;;;;20.27;9.10;;;0.80;99.90;;;;;;5174028;28;20229;-62
2022/11/19 08:28:33;;;;;;;164.45;64.45;;;1.00;99.90;;;;;;5163390;28;20038;-62
2022/11/19 08:31:08;;;;;;;49.72;36.05;;;1.10;99.90;;;;;;5173782;28;20036;-62
2022/11/19 08:33:41;;;;;;;69.63;59.92;;;1.40;99.90;;;;;;5157721;28;20057;-62
2022/11/19 08:36:12;;;;;;;55.10;43.20;;;1.40;99.90;;;;;;5222939;28;20047;-65
2022/11/19 08:38:43;;;;;;;50.50;43.35;;;1.10;99.90;;;;;;5189856;28;20033;-61
2022/11/19 08:44:07;;;;;;;27.75;17.00;;;1.00;99.90;;;;;;5223612;28;20047;-62
2022/11/19 08:46:39;;;;;;;24.13;13.73;;;1.40;99.90;;;;;;5194763;28;20035;-62
2022/11/19 08:49:13;;;;;;;29.85;17.63;;;1.70;99.90;;;;;;5213053;28;20025;-62
2022/11/19 08:51:44;;;;;;;27.95;16.48;;;2.00;99.90;;;;;;5178084;28;20041;-62
2022/11/19 08:54:15;;;;;;;44.25;28.13;;;2.10;99.90;;;;;;5178712;28;20030;-63
2022/11/19 08:56:47;;;;;;;32.28;14.02;;;2.40;99.90;;;;;;5195727;28;20021;-62
2022/11/19 08:59:21;;;;;;;27.20;16.38;;;2.50;99.90;;;;;;5178411;28;20049;-60
2022/11/19 09:01:52;;;;;;;17.60;9.35;;;2.20;99.90;;;;;;5178612;28;20056;-61
2022/11/19 09:04:26;;;;;;;22.65;13.93;;;1.70;99.90;;;;;;5204442;28;20336;-61
2022/11/19 09:06:57;;;;;;;12.32;6.43;;;1.50;99.90;;;;;;5216105;28;20035;-62
2022/11/19 09:09:31;;;;;;;25.55;16.63;;;1.60;99.90;;;;;;5215672;28;20037;-60
2022/11/19 09:12:05;;;;;;;37.78;26.55;;;1.60;99.90;;;;;;5215414;28;20020;-62
2022/11/19 09:14:36;;;;;;;28.10;19.20;;;1.50;99.90;;;;;;5194546;28;20364;-60
2022/11/19 09:17:07;;;;;;;37.30;20.95;;;1.60;99.90;;;;;;5194604;28;20037;-62
2022/11/19 09:19:41;;;;;;;15.65;9.02;;;1.80;99.90;;;;;;5202377;28;20203;-61
2022/11/19 09:22:12;;;;;;;13.25;8.30;;;2.00;99.90;;;;;;5218286;28;20031;-59
2022/11/19 09:24:43;;;;;;;17.98;10.60;;;2.20;99.90;;;;;;5199040;28;20063;-61
2022/11/19 09:27:14;;;;;;;28.02;14.40;;;2.40;99.90;;;;;;5216839;28;20195;-61
2022/11/19 09:29:48;;;;;;;15.02;6.72;;;2.10;99.90;;;;;;5198095;28;20032;-61
2022/11/19 09:32:21;;;;;;;14.67;8.30;;;2.10;99.90;;;;;;5198133;28;20352;-61
2022/11/19 09:34:55;;;;;;;34.08;17.08;;;2.40;99.90;;;;;;5191151;28;20049;-61
2022/11/19 09:37:32;;;;;;;31.70;14.82;;;2.50;99.90;;;;;;5194643;28;20041;-62
2022/11/19 09:40:04;;;;;;;16.15;8.85;;;2.60;99.90;;;;;;5194331;28;20037;-61
2022/11/19 09:42:57;;;;;;;15.98;8.27;;;2.10;99.90;;;;;;5228842;28;20310;-60
2022/11/19 09:45:38;;;;;;;43.65;24.38;;;1.90;99.90;;;;;;5198251;28;20237;-62
2022/11/19 09:48:47;;;;;;;33.28;19.55;;;2.10;99.90;;;;;;5231703;28;20035;-62
2022/11/19 09:51:27;;;;;;;35.83;19.75;;;2.10;99.90;;;;;;5195559;28;20040;-62
2022/11/19 09:54:06;;;;;;;49.63;27.60;;;2.20;99.90;;;;;;5215318;28;20045;-61
2022/11/19 09:56:44;;;;;;;13.18;7.78;;;2.50;99.90;;;;;;5197427;28;20041;-60
2022/11/19 09:59:29;;;;;;;17.70;10.65;;;2.80;99.90;;;;;;5214376;28;20039;-59
2022/11/19 10:02:08;;;;;;;16.08;8.18;;;3.00;99.90;;;;;;5232230;28;20028;-60
2022/11/19 10:04:42;;;;;;;25.35;14.85;;;3.00;99.90;;;;;;5174584;28;20057;-60
2022/11/19 10:07:40;;;;;;;15.80;8.95;;;2.90;99.90;;;;;;5210321;28;20041;-60
2022/11/19 10:10:29;;;;;;;37.78;27.85;;;3.10;99.90;;;;;;5194503;28;20025;-60
2022/11/19 10:13:29;;;;;;;40.10;28.23;;;2.90;99.90;;;;;;5210176;28;20036;-61
2022/11/19 10:16:06;;;;;;;42.03;28.88;;;2.70;99.90;;;;;;5154589;28;20064;-60
2022/11/19 10:18:56;;;;;;;28.55;16.25;;;2.50;99.90;;;;;;5196822;28;20035;-60
2022/11/19 10:22:04;;;;;;;33.83;23.20;;;2.50;99.90;;;;;;5209657;28;20321;-61
2022/11/19 10:25:09;;;;;;;28.13;18.27;;;2.40;99.90;;;;;;5198496;28;20051;-60
2022/11/19 10:28:01;;;;;;;17.77;10.90;;;2.60;99.90;;;;;;5210316;28;20226;-62
2022/11/19 10:30:33;;;;;;;15.27;8.45;;;2.70;99.90;;;;;;5210373;28;20055;-67
2022/11/19 10:33:19;;;;;;;14.85;8.27;;;2.90;99.90;;;;;;5206680;28;20033;-61
2022/11/19 10:36:14;;;;;;;15.15;8.73;;;2.90;99.90;;;;;;5187631;28;20046;-63
2022/11/19 10:39:01;;;;;;;15.88;8.23;;;3.00;99.90;;;;;;5187494;28;20044;-61
2022/11/19 10:41:40;;;;;;;21.85;11.20;;;3.30;99.90;;;;;;5197379;28;20032;-61
2022/11/19 10:44:36;;;;;;;18.70;12.02;;;3.30;99.90;;;;;;5196129;28;20044;-61
2022/11/19 10:47:33;;;;;;;29.25;18.40;;;3.30;99.90;;;;;;5198387;28;20031;-60
2022/11/19 10:50:06;;;;;;;17.13;9.13;;;3.30;99.90;;;;;;5210252;28;20037;-61
2022/11/19 10:52:43;;;;;;;19.73;11.95;;;3.40;99.90;;;;;;5213439;28;20051;-60
2022/11/19 10:55:22;;;;;;;17.20;10.07;;;3.10;99.90;;;;;;5216403;28;20045;-59
2022/11/19 10:58:09;;;;;;;20.25;12.40;;;2.80;99.90;;;;;;5216992;28;20053;-62
2022/11/19 11:00:41;;;;;;;15.13;9.27;;;2.80;99.90;;;;;;5225726;28;20025;-62
2022/11/19 11:03:49;;;;;;;19.27;10.55;;;2.60;99.90;;;;;;5198254;28;20056;-62
2022/11/19 11:06:20;;;;;;;20.17;9.43;;;2.90;99.90;;;;;;5230451;28;20388;-62
2022/11/19 11:08:55;;;;;;;17.90;9.15;;;3.00;99.90;;;;;;5206860;28;20203;-61
2022/11/19 11:14:50;;;;;;;;;;;3.40;99.90;;;;;;5221622;28;20125;-62
2022/11/19 11:17:20;;;;;;;21.05;13.55;;;4.00;99.90;;;;;;5238126;28;20036;-60
2022/11/19 11:20:20;;;;;;;19.02;9.48;;;4.20;99.90;;;;;;5213497;28;20029;-61
2022/11/19 11:23:07;;;;;;;22.88;16.33;;;4.20;99.90;;;;;;5219590;28;20046;-61
2022/11/19 11:25:42;;;;;;;18.20;9.30;;;3.60;99.90;;;;;;5242873;28;20232;-62
2022/11/19 11:28:18;;;;;;;16.52;8.23;;;3.50;99.90;;;;;;5250107;28;20029;-61
2022/11/19 11:30:54;;;;;;;12.65;7.80;;;3.50;99.90;;;;;;5233432;28;20027;-61
2022/11/19 11:33:36;;;;;;;15.32;8.00;;;3.30;99.90;;;;;;5234469;28;20032;-60
2022/11/19 11:36:14;;;;;;;20.00;10.77;;;3.60;99.90;;;;;;5236609;28;20025;-60
2022/11/19 11:38:48;;;;;;;54.08;40.58;;;3.90;99.90;;;;;;5235008;28;20035;-62
2022/11/19 11:41:33;;;;;;;18.45;12.63;;;4.00;99.90;;;;;;5233459;28;20033;-61
2022/11/19 11:44:14;;;;;;;27.23;17.88;;;4.20;99.90;;;;;;5236623;28;20058;-61
2022/11/19 11:46:51;;;;;;;33.33;20.95;;;4.20;99.90;;;;;;5233574;28;20036;-61
2022/11/19 11:49:39;;;;;;;24.42;14.05;;;4.20;99.90;;;;;;5227172;28;20040;-61
2022/11/19 11:52:10;;;;;;;13.88;7.68;;;4.00;99.90;;;;;;5215826;28;20037;-61
2022/11/19 11:54:59;;;;;;;253.82;204.77;;;4.20;99.90;;;;;;5215386;28;20054;-60
2022/11/19 11:57:36;;;;;;;33.20;25.10;;;4.30;99.90;;;;;;5250827;28;20222;-60
2022/11/19 12:00:29;;;;;;;21.05;13.13;;;4.40;99.90;;;;;;5235597;28;20032;-60
2022/11/19 12:03:21;;;;;;;18.83;11.82;;;4.30;99.90;;;;;;5216754;28;20058;-64
2022/11/19 12:06:04;;;;;;;17.80;8.07;;;4.20;99.90;;;;;;5228879;28;20052;-61
2022/11/19 12:08:54;;;;;;;15.75;8.07;;;4.20;99.90;;;;;;5218110;28;20041;-61
2022/11/19 12:11:52;;;;;;;23.55;16.20;;;4.20;99.90;;;;;;5240531;28;20040;-61
2022/11/19 12:14:37;;;;;;;17.85;9.98;;;4.10;99.90;;;;;;5246995;28;20040;-61
2022/11/19 12:17:59;;;;;;;31.67;21.52;;;4.00;99.90;;;;;;5218855;28;20020;-63
2022/11/19 12:20:56;;;;;;;22.95;14.77;;;3.80;99.90;;;;;;5142837;28;20038;-61
2022/11/19 12:23:54;;;;;;;15.15;7.65;;;3.70;99.90;;;;;;5153901;28;20031;-60
2022/11/19 12:26:37;;;;;;;18.30;10.18;;;3.60;99.90;;;;;;5158623;28;20039;-61
2022/11/19 12:29:26;;;;;;;18.83;11.32;;;3.80;99.90;;;;;;5111680;28;20039;-61
2022/11/19 12:32:30;;;;;;;21.15;13.68;;;3.70;99.90;;;;;;5223046;28;20036;-61
2022/11/19 12:35:28;;;;;;;32.03;20.15;;;3.60;99.90;;;;;;5197276;28;20048;-61
2022/11/19 12:38:09;;;;;;;16.85;8.98;;;3.50;99.90;;;;;;5225679;28;20221;-60
2022/11/19 12:41:17;;;;;;;12.95;7.78;;;3.50;99.90;;;;;;5214496;28;20042;-60
2022/11/19 12:44:11;;;;;;;15.45;8.27;;;3.50;99.90;;;;;;5209982;28;20036;-60
2022/11/19 12:46:54;;;;;;;28.60;18.10;;;3.50;99.90;;;;;;5243107;28;20029;-60
2022/11/19 12:49:28;;;;;;;25.45;12.73;;;3.30;99.90;;;;;;5219665;28;20282;-60
2022/11/19 12:52:40;;;;;;;15.13;9.23;;;3.40;99.90;;;;;;5244012;28;20341;-61
2022/11/19 12:55:22;;;;;;;18.40;8.35;;;3.50;99.90;;;;;;5243024;28;20033;-62
2022/11/19 12:58:30;;;;;;;18.63;9.10;;;3.50;99.90;;;;;;5215772;28;20046;-62
2022/11/19 13:01:08;;;;;;;17.17;8.00;;;3.50;99.90;;;;;;5221727;28;20321;-61
2022/11/19 13:07:04;;;;;;;15.75;7.65;;;3.30;99.90;;;;;;5197165;28;20040;-61
2022/11/19 13:09:47;;;;;;;14.80;8.60;;;3.20;99.90;;;;;;5221790;28;20038;-60
2022/11/19 13:12:32;;;;;;;16.30;8.80;;;3.00;99.90;;;;;;5237415;28;20033;-61
2022/11/19 13:15:19;;;;;;;28.55;19.35;;;3.00;99.90;;;;;;5217095;28;20021;-62
2022/11/19 13:18:08;;;;;;;18.73;11.00;;;3.00;99.90;;;;;;5214717;28;20376;-61
2022/11/19 13:20:59;;;;;;;36.88;24.48;;;2.90;99.90;;;;;;5234927;28;20118;-62
2022/11/19 13:23:39;;;;;;;18.40;8.95;;;2.90;99.90;;;;;;5235425;28;20314;-62
2022/11/19 13:26:21;;;;;;;22.33;12.77;;;2.90;99.90;;;;;;5230771;28;20384;-62
2022/11/19 13:29:33;;;;;;;17.77;8.95;;;2.70;99.90;;;;;;5230997;28;20033;-61
2022/11/19 13:32:45;;;;;;;10.63;6.68;;;2.70;99.90;;;;;;5238480;28;20203;-62
2022/11/19 13:35:28;;;;;;;15.30;8.98;;;2.70;99.90;;;;;;5239476;28;20041;-62
2022/11/19 13:38:06;;;;;;;24.08;14.23;;;2.70;99.90;;;;;;5198412;28;20041;-61
2022/11/19 13:41:01;;;;;;;16.25;12.07;;;2.70;99.90;;;;;;5214455;28;20036;-60
2022/11/19 13:46:47;;;;;;;11.95;6.53;;;2.90;99.90;;;;;;5250515;28;19904;-62
2022/11/19 13:49:31;;;;;;;14.18;8.63;;;3.00;99.90;;;;;;5246317;28;20488;-62
2022/11/19 13:52:07;;;;;;;48.95;26.83;;;3.00;99.90;;;;;;5232433;28;20033;-64
2022/11/19 13:54:44;;;;;;;60.58;28.63;;;3.10;99.90;;;;;;5242469;28;20037;-63
2022/11/19 13:57:33;;;;;;;139.32;56.50;;;3.10;99.90;;;;;;5253131;28;20024;-61
2022/11/19 14:00:23;;;;;;;39.63;18.25;;;2.90;99.90;;;;;;5253503;28;20024;-62
2022/11/19 14:03:18;;;;;;;36.45;19.85;;;2.80;99.90;;;;;;5222016;28;20044;-61
2022/11/19 14:06:20;;;;;;;21.77;12.40;;;2.70;99.90;;;;;;5239006;28;20055;-61
2022/11/19 14:09:12;;;;;;;63.13;30.98;;;2.70;99.90;;;;;;5215104;28;20301;-63